Time;durP1;ratioP1;P1;durP2;ratioP2;P2;SDS_P1;SDS_P2;PMS_P1;PMS_P2;Temp;Humidity;BMP_temperature;BMP_pressure;BME280_temperature;BME280_humidity;BME280_pressure;Samples;Min_cycle;Max_cycle;Signal;HPM_P1;HPM_P2
2021/06/03 00:00:40;;;;;;;;;22.50;19.00;;;;;21.66;62.60;101531.81;5060082;28;45381;-92
2021/06/03 00:03:06;;;;;;;;;17.00;17.00;;;;;21.67;62.15;101521.97;5060191;28;45194;-86
2021/06/03 00:05:44;;;;;;;;;20.50;18.75;;;;;21.67;62.52;101530.84;5060426;28;45486;-90
2021/06/03 00:08:11;;;;;;;;;19.00;17.25;;;;;21.68;62.45;101529.03;5060259;28;46501;-86
2021/06/03 00:10:41;;;;;;;;;20.25;18.75;;;;;21.67;62.39;101521.97;5071957;28;46062;-86
2021/06/03 00:13:07;;;;;;;;;20.50;16.75;;;;;21.66;62.21;101518.41;5072718;28;45230;-86
2021/06/03 00:15:34;;;;;;;;;17.50;15.50;;;;;21.66;62.60;101520.25;5059596;28;46012;-85
2021/06/03 00:18:00;;;;;;;;;19.25;16.50;;;;;21.66;62.15;101525.59;5079518;28;46063;-85
2021/06/03 00:20:30;;;;;;;;;19.75;19.50;;;;;21.65;62.00;101529.25;5062149;28;45671;-85
2021/06/03 00:22:56;;;;;;;;;13.75;12.00;;;;;21.67;62.41;101530.00;5060083;28;45290;-85
2021/06/03 00:25:22;;;;;;;;;16.25;15.75;;;;;21.65;62.62;101532.78;5059622;28;45250;-86
2021/06/03 00:27:48;;;;;;;;;20.25;16.50;;;;;21.65;61.87;101529.25;5059777;28;45370;-86
2021/06/03 00:30:14;;;;;;;;;18.00;13.25;;;;;21.61;62.31;101533.94;5071879;28;45354;-89
2021/06/03 00:32:40;;;;;;;;;17.50;16.25;;;;;21.60;61.82;101529.56;5060049;28;45325;-88
2021/06/03 00:35:07;;;;;;;;;18.75;17.00;;;;;21.59;61.95;101534.03;5072234;28;45296;-88
2021/06/03 00:37:32;;;;;;;;;17.00;15.75;;;;;21.59;62.56;101546.56;5075836;28;47167;-86
2021/06/03 00:39:57;;;;;;;;;15.25;15.25;;;;;21.59;62.43;101542.06;5070153;28;45939;-86
2021/06/03 00:42:24;;;;;;;;;16.50;16.50;;;;;21.59;62.43;101547.41;5078391;28;45397;-86
2021/06/03 00:44:50;;;;;;;;;17.50;15.75;;;;;21.59;62.02;101546.56;5063188;28;45217;-87
2021/06/03 00:47:15;;;;;;;;;17.00;16.25;;;;;21.58;61.89;101550.19;5073707;28;46978;-87
2021/06/03 00:49:40;;;;;;;;;18.00;17.00;;;;;21.57;61.86;101552.00;5074044;28;45210;-87
2021/06/03 00:52:07;;;;;;;;;16.00;16.00;;;;;21.58;61.97;101555.56;5065732;28;45508;-86
2021/06/03 00:54:32;;;;;;;;;16.75;16.75;;;;;21.57;62.05;101549.34;5062809;28;45304;-84
2021/06/03 00:56:57;;;;;;;;;18.00;15.75;;;;;21.57;61.93;101553.81;5062758;28;45297;-88
2021/06/03 00:59:23;;;;;;;;;17.50;16.50;;;;;21.56;61.94;101555.63;5064072;28;45452;-87
2021/06/03 01:01:48;;;;;;;;;21.75;20.25;;;;;21.57;61.69;101553.81;5063133;28;45504;-87
2021/06/03 01:04:19;;;;;;;;;18.50;17.25;;;;;21.55;61.81;101553.94;5078932;28;46184;-91
2021/06/03 01:06:44;;;;;;;;;14.75;14.75;;;;;21.55;61.69;101551.25;5068244;27;45419;-92
2021/06/03 01:09:23;;;;;;;;;18.75;17.25;;;;;21.56;61.91;101560.13;5062711;28;45636;-86
2021/06/03 01:12:13;;;;;;;;;16.50;16.50;;;;;21.54;61.79;101548.69;5062965;28;45381;-91
2021/06/03 01:14:43;;;;;;;;;16.00;14.25;;;;;21.54;61.81;101557.56;5061521;28;46202;-89
2021/06/03 01:17:11;;;;;;;;;16.75;16.50;;;;;21.51;61.96;101557.75;5070167;28;46283;-91
2021/06/03 01:19:40;;;;;;;;;17.25;16.25;;;;;21.52;62.33;101566.66;5073277;28;45316;-91
2021/06/03 01:22:33;;;;;;;;;17.50;16.25;;;;;21.51;62.52;101570.28;5079507;28;45163;-91
2021/06/03 01:24:59;;;;;;;;;18.75;18.50;;;;;21.48;62.59;101574.03;5082676;27;45249;-87
2021/06/03 01:27:33;;;;;;;;;17.00;17.00;;;;;21.46;62.25;101567.91;5061082;28;47417;-89
2021/06/03 01:30:12;;;;;;;;;19.50;18.25;;;;;21.45;62.77;101571.56;5062249;28;45247;-92
2021/06/03 01:32:41;;;;;;;;;19.75;19.25;;;;;21.44;63.14;101580.53;5062654;28;45198;-92
2021/06/03 01:35:16;;;;;;;;;20.25;16.50;;;;;21.42;62.84;101574.44;5071877;27;45447;-89
2021/06/03 01:37:42;;;;;;;;;17.00;15.50;;;;;21.40;62.58;101573.66;5080660;28;46190;-90
2021/06/03 01:40:09;;;;;;;;;19.50;18.25;;;;;21.39;63.26;101579.97;5082386;28;45296;-90
2021/06/03 01:42:37;;;;;;;;;22.25;19.75;;;;;21.36;63.08;101581.88;5068164;28;45289;-89
2021/06/03 01:45:04;;;;;;;;;18.50;17.00;;;;;21.35;62.58;101585.53;5082614;27;45284;-89
2021/06/03 01:47:31;;;;;;;;;19.50;17.50;;;;;21.34;63.16;101582.94;5077304;28;46348;-89
2021/06/03 01:49:58;;;;;;;;;17.75;15.25;;;;;21.31;63.30;101585.84;5063212;28;45457;-89
2021/06/03 01:52:24;;;;;;;;;20.50;17.75;;;;;21.29;63.39;101593.09;5063494;28;45415;-89
2021/06/03 01:54:51;;;;;;;;;17.50;17.25;;;;;21.27;63.47;101595.88;5061759;28;45187;-89
2021/06/03 01:57:17;;;;;;;;;17.50;17.50;;;;;21.27;63.54;101600.34;5061822;28;46140;-88
2021/06/03 01:59:43;;;;;;;;;16.50;16.50;;;;;21.26;63.42;101604.81;5062078;28;45366;-88
2021/06/03 02:02:08;;;;;;;;;19.25;18.50;;;;;21.24;63.49;101602.28;5061987;28;45352;-89
2021/06/03 02:04:33;;;;;;;;;18.75;18.75;;;;;21.23;63.45;101600.56;5074376;28;47124;-88
2021/06/03 02:06:59;;;;;;;;;21.75;18.00;;;;;21.23;63.89;101616.59;5074237;28;45314;-88
2021/06/03 02:09:24;;;;;;;;;20.00;19.00;;;;;21.22;63.71;101608.66;5081802;28;45315;-89
2021/06/03 02:11:50;;;;;;;;;18.25;14.50;;;;;21.20;63.51;101613.25;5082233;28;45269;-92
2021/06/03 02:14:20;;;;;;;;;16.50;16.50;;;;;21.20;64.09;101611.44;5081038;28;45258;-93
2021/06/03 02:16:55;;;;;;;;;17.00;16.75;;;;;21.19;63.71;101606.19;5073798;28;45328;-93
2021/06/03 02:19:25;;;;;;;;;22.00;19.25;;;;;21.18;64.03;101612.50;5079863;28;45583;-90
2021/06/03 02:21:52;;;;;;;;;20.25;19.50;;;;;21.16;63.88;101604.59;5072955;27;45310;-90
2021/06/03 02:24:21;;;;;;;;;25.75;19.50;;;;;21.14;64.07;101607.34;5072852;28;46206;-87
2021/06/03 02:26:48;;;;;;;;;16.75;16.75;;;;;21.12;64.20;101605.72;5067089;27;45385;-88
2021/06/03 02:29:15;;;;;;;;;20.00;18.00;;;;;21.10;64.08;101605.84;5078068;28;45677;-88
2021/06/03 02:31:41;;;;;;;;;16.50;16.25;;;;;21.09;63.84;101613.94;5070573;28;45252;-88
2021/06/03 02:34:07;;;;;;;;;23.00;18.25;;;;;21.08;64.20;101609.56;5062616;28;45340;-89
2021/06/03 02:36:32;;;;;;;;;21.75;19.75;;;;;21.07;64.00;101616.72;5064140;28;46249;-94
2021/06/03 02:38:59;;;;;;;;;22.25;19.75;;;;;21.06;63.84;101614.16;5075224;28;45367;-94
2021/06/03 02:41:24;;;;;;;;;15.25;14.50;;;;;21.06;64.04;101614.16;5074855;28;45419;-94
2021/06/03 02:43:50;;;;;;;;;21.50;19.25;;;;;21.03;63.63;101609.88;5065705;27;45448;-91
2021/06/03 02:46:18;;;;;;;;;19.75;17.25;;;;;21.02;63.70;101616.16;5061279;28;46249;-92
2021/06/03 02:48:44;;;;;;;;;15.75;15.75;;;;;21.01;63.90;101612.63;5070202;28;45387;-92
2021/06/03 02:51:10;;;;;;;;;18.50;16.75;;;;;21.02;64.03;101614.34;5067549;28;45368;-95
2021/06/03 02:54:29;;;;;;;;;21.75;18.75;;;;;21.04;64.32;101614.25;5081487;27;45363;-95
2021/06/03 02:56:55;;;;;;;;;23.50;17.50;;;;;21.02;64.47;101611.69;5077539;28;47619;-92
2021/06/03 02:59:20;;;;;;;;;22.00;19.00;;;;;21.02;64.69;101613.47;5078718;28;45654;-91
2021/06/03 03:01:46;;;;;;;;;18.75;16.25;;;;;21.02;64.43;101613.47;5080357;28;45281;-92
2021/06/03 03:04:11;;;;;;;;;21.75;17.50;;;;;21.01;64.11;101614.47;5080397;28;45141;-91
2021/06/03 03:06:36;;;;;;;;;19.25;16.50;;;;;21.01;64.29;101617.13;5079062;28;47317;-92
2021/06/03 03:09:03;;;;;;;;;14.50;14.50;;;;;21.02;64.73;101624.16;5060907;28;45354;-90
2021/06/03 03:11:29;;;;;;;;;21.50;20.75;;;;;20.99;64.53;101624.34;5061010;28;45349;-91
2021/06/03 03:13:55;;;;;;;;;18.75;18.00;;;;;20.97;64.59;101626.25;5063178;28;45498;-91
2021/06/03 03:16:20;;;;;;;;;18.00;16.75;;;;;20.96;65.01;101622.75;5065992;28;48028;-91
2021/06/03 03:18:46;;;;;;;;;20.50;18.00;;;;;20.94;64.52;101626.47;5061483;28;45326;-91
2021/06/03 03:21:11;;;;;;;;;22.00;19.50;;;;;20.95;64.88;101630.84;5076404;28;45460;-91
2021/06/03 03:26:58;;;;;;;;;18.50;18.50;;;;;20.94;64.41;101635.31;5064127;28;45884;-90
2021/06/03 03:29:24;;;;;;;;;20.00;19.25;;;;;20.93;65.15;101638.97;5068330;28;45767;-89
2021/06/03 03:31:49;;;;;;;;;19.50;19.00;;;;;20.92;65.03;101647.91;5079463;27;45352;-92
2021/06/03 03:34:14;;;;;;;;;17.75;17.75;;;;;20.92;65.00;101642.56;5060545;28;45253;-88
2021/06/03 03:36:40;;;;;;;;;20.00;17.25;;;;;20.90;64.96;101645.34;5077399;27;47166;-96
2021/06/03 03:39:07;;;;;;;;;19.25;17.00;;;;;20.91;64.75;101662.25;5078626;28;45294;-96
2021/06/03 03:41:33;;;;;;;;;19.75;19.25;;;;;20.90;65.24;101661.38;5081563;27;45396;-96
2021/06/03 03:43:59;;;;;;;;;17.00;17.00;;;;;20.89;65.25;101662.31;5067299;27;45630;-94
2021/06/03 03:46:25;;;;;;;;;17.25;16.50;;;;;20.90;65.19;101666.72;5078188;28;47570;-95
2021/06/03 03:49:08;;;;;;;;;20.00;16.25;;;;;20.90;64.73;101669.41;5082636;28;45824;-93
2021/06/03 03:51:34;;;;;;;;;15.75;15.75;;;;;20.89;64.81;101670.34;5084144;28;45199;-94
2021/06/03 03:53:59;;;;;;;;;20.50;18.25;;;;;20.91;65.11;101670.25;5069059;28;45462;-95
2021/06/03 03:56:24;;;;;;;;;16.50;15.50;;;;;20.89;64.87;101680.19;5069416;28;45892;-90
2021/06/03 03:58:50;;;;;;;;;17.50;16.00;;;;;20.90;65.05;101673.88;5061831;28;45258;-90
2021/06/03 04:01:17;;;;;;;;;19.50;17.25;;;;;20.91;64.76;101687.13;5080064;28;45426;-91
2021/06/03 04:03:42;;;;;;;;;18.25;17.75;;;;;20.90;64.65;101682.75;5066448;28;45176;-91
2021/06/03 04:06:08;;;;;;;;;20.25;19.00;;;;;20.90;64.78;101685.44;5073024;28;46310;-96
2021/06/03 04:08:34;;;;;;;;;18.50;17.25;;;;;20.90;64.80;101690.78;5073664;28;45713;-92
2021/06/03 04:11:00;;;;;;;;;22.00;19.75;;;;;20.91;64.77;101687.13;5072862;28;45407;-91
2021/06/03 04:13:26;;;;;;;;;19.50;19.50;;;;;20.92;64.92;101696.00;5077170;28;45570;-96
2021/06/03 04:15:52;;;;;;;;;19.75;18.75;;;;;20.92;64.70;101696.88;5089615;27;45443;-96
2021/06/03 04:18:17;;;;;;;;;17.25;17.00;;;;;20.93;65.00;101695.06;5060048;28;45497;-92
2021/06/03 04:20:42;;;;;;;;;18.50;15.75;;;;;20.95;64.91;101703.84;5060414;28;45439;-91
2021/06/03 04:23:08;;;;;;;;;22.25;22.25;;;;;20.95;64.97;101702.97;5071147;28;45495;-89
2021/06/03 04:25:33;;;;;;;;;18.25;18.25;;;;;20.95;65.25;101705.66;5062065;28;45987;-94
2021/06/03 04:28:01;;;;;;;;;20.50;18.75;;;;;20.97;65.21;101706.41;5072868;28;45253;-96
2021/06/03 04:30:28;;;;;;;;;20.50;20.00;;;;;20.94;65.33;101706.63;5087705;28;44586;-85
2021/06/03 04:32:54;;;;;;;;;16.50;16.50;;;;;20.92;65.08;101702.22;5073325;28;46026;-86
2021/06/03 04:35:22;;;;;;;;;20.75;19.75;;;;;20.92;65.18;101709.38;5073041;28;45364;-85
2021/06/03 04:37:53;;;;;;;;;20.00;19.00;;;;;20.93;65.10;101708.44;5075907;28;45594;-96
2021/06/03 04:40:22;;;;;;;;;19.75;19.25;;;;;20.94;65.22;101717.31;5082259;28;45471;-94
2021/06/03 04:42:49;;;;;;;;;18.75;17.50;;;;;20.94;65.22;101718.16;5065473;28;45340;-94
2021/06/03 04:45:15;;;;;;;;;22.75;20.50;;;;;20.95;65.06;101721.69;5068494;28;45167;-96
2021/06/03 04:47:44;;;;;;;;;19.75;18.25;;;;;20.96;65.22;101718.06;5073773;28;45568;-96
2021/06/03 04:50:12;;;;;;;;;17.25;16.75;;;;;20.96;64.80;101715.41;5072673;28;45377;-96
2021/06/03 04:52:38;;;;;;;;;17.50;17.00;;;;;20.97;64.86;101717.09;5071728;27;45426;-86
2021/06/03 04:55:08;;;;;;;;;22.50;20.00;;;;;20.97;64.77;101717.97;5059411;28;46321;-88
2021/06/03 04:57:35;;;;;;;;;16.50;15.25;;;;;20.98;64.55;101716.16;5059463;28;45266;-86
2021/06/03 05:00:01;;;;;;;;;22.75;19.00;;;;;21.00;64.54;101717.81;5069879;28;45485;-89
2021/06/03 05:02:26;;;;;;;;;15.75;12.50;;;;;21.02;64.74;101715.03;5073406;28;45334;-90
2021/06/03 05:04:53;;;;;;;;;21.50;19.25;;;;;21.04;65.18;101710.44;5066750;28;47315;-90
2021/06/03 05:07:18;;;;;;;;;24.25;22.75;;;;;21.05;64.66;101712.19;5059393;28;45234;-87
2021/06/03 05:09:44;;;;;;;;;19.75;18.75;;;;;21.07;64.88;101702.25;5059308;28;45482;-87
2021/06/03 05:12:10;;;;;;;;;22.25;18.00;;;;;21.10;65.00;101709.22;5062325;28;46098;-84
2021/06/03 05:14:35;;;;;;;;;22.00;17.75;;;;;21.11;65.34;101711.78;5060660;28;45467;-84
2021/06/03 05:17:01;;;;;;;;;18.75;18.50;;;;;21.14;65.15;101714.25;5069750;28;45270;-85
2021/06/03 05:19:26;;;;;;;;;24.75;19.00;;;;;21.13;65.12;101720.59;5065942;28;45385;-84
2021/06/03 05:21:52;;;;;;;;;20.25;17.00;;;;;21.15;64.96;101717.81;5061719;28;45729;-84
2021/06/03 05:24:18;;;;;;;;;20.75;19.25;;;;;21.16;65.32;101722.22;5071054;27;45288;-83
2021/06/03 05:26:43;;;;;;;;;18.25;17.25;;;;;21.18;65.69;101720.28;5066161;28;45526;-85
2021/06/03 05:29:14;;;;;;;;;21.25;17.50;;;;;21.20;65.45;101725.53;5061747;28;45348;-85
2021/06/03 05:31:40;;;;;;;;;23.75;18.50;;;;;21.20;65.65;101728.19;5063231;28;46237;-85
2021/06/03 05:34:05;;;;;;;;;20.25;19.25;;;;;21.22;65.40;101726.28;5061535;28;45338;-85
2021/06/03 05:36:31;;;;;;;;;21.50;19.50;;;;;21.24;64.68;101724.38;5061423;28;45456;-85
2021/06/03 05:38:56;;;;;;;;;19.00;16.50;;;;;21.24;65.05;101727.91;5072346;28;45196;-84
2021/06/03 05:41:21;;;;;;;;;19.75;17.50;;;;;21.27;65.21;101728.66;5061569;28;45218;-84
2021/06/03 05:43:47;;;;;;;;;21.50;17.00;;;;;21.29;65.33;101727.63;5068958;28;45264;-84
2021/06/03 05:46:12;;;;;;;;;19.75;18.50;;;;;21.31;65.34;101732.88;5068950;28;45310;-87
2021/06/03 05:48:37;;;;;;;;;21.50;20.50;;;;;21.34;65.03;101736.22;5067546;28;45469;-83
2021/06/03 05:51:03;;;;;;;;;19.50;17.25;;;;;21.35;64.85;101737.94;5065436;27;45413;-83
2021/06/03 05:53:28;;;;;;;;;18.25;16.25;;;;;21.39;64.98;101732.38;5061562;28;45356;-84
2021/06/03 05:55:54;;;;;;;;;20.50;20.25;;;;;21.43;64.86;101741.94;5065425;28;45308;-83
2021/06/03 05:58:19;;;;;;;;;28.00;21.75;;;;;21.46;65.32;101734.56;5061461;28;45754;-83
2021/06/03 06:00:45;;;;;;;;;18.25;18.00;;;;;21.50;65.45;101737.91;5072742;28;46908;-83
2021/06/03 06:03:19;;;;;;;;;24.25;21.00;;;;;21.56;65.13;101737.50;5065545;27;45397;-83
2021/06/03 06:08:28;;;;;;;;;18.25;17.75;;;;;21.66;64.92;101739.59;5061113;28;45286;-83
2021/06/03 06:10:54;;;;;;;;;19.25;18.25;;;;;21.70;64.46;101738.44;5061091;28;45522;-84
2021/06/03 06:13:21;;;;;;;;;22.50;20.75;;;;;21.77;64.58;101746.94;5070553;28;47195;-80
2021/06/03 06:15:47;;;;;;;;;18.25;17.50;;;;;21.80;63.81;101747.56;5075460;28;45603;-82
2021/06/03 06:18:12;;;;;;;;;18.00;17.00;;;;;21.87;63.67;101752.56;5076425;27;45436;-83
2021/06/03 06:20:39;;;;;;;;;20.50;17.25;;;;;21.92;63.28;101750.44;5079113;28;45874;-83
2021/06/03 06:23:05;;;;;;;;;21.50;19.50;;;;;21.97;63.68;101753.69;5064492;27;45341;-83
2021/06/03 06:25:31;;;;;;;;;24.75;24.25;;;;;22.02;63.65;101759.59;5065322;28;45544;-83
2021/06/03 06:27:58;;;;;;;;;25.00;21.25;;;;;22.07;63.42;101761.97;5075071;28;45238;-83
2021/06/03 06:30:24;;;;;;;;;20.75;19.00;;;;;22.12;63.18;101767.88;5072646;28;45484;-82
2021/06/03 06:32:49;;;;;;;;;23.50;19.25;;;;;22.16;62.98;101763.16;5076481;28;45542;-83
2021/06/03 06:35:17;;;;;;;;;21.50;19.75;;;;;22.20;63.00;101769.19;5076463;28;45306;-83
2021/06/03 06:37:42;;;;;;;;;19.25;19.25;;;;;22.22;63.19;101769.94;5062662;28;45423;-83
2021/06/03 06:40:08;;;;;;;;;18.25;14.00;;;;;22.26;63.39;101772.31;5061369;28;45430;-83
2021/06/03 06:42:34;;;;;;;;;17.75;15.50;;;;;22.30;62.75;101769.44;5061632;28;45493;-88
2021/06/03 06:45:00;;;;;;;;;23.50;21.50;;;;;22.33;62.66;101772.75;5068665;28;45856;-82
2021/06/03 06:47:25;;;;;;;;;21.75;20.75;;;;;22.35;63.66;101773.50;5076422;28;45254;-83
2021/06/03 06:49:51;;;;;;;;;20.50;18.75;;;;;22.41;63.30;101772.22;5065668;28;45230;-83
2021/06/03 06:52:17;;;;;;;;;21.50;20.25;;;;;22.46;62.86;101769.25;5075368;28;45436;-83
2021/06/03 06:54:42;;;;;;;;;21.25;20.25;;;;;22.52;62.84;101773.34;5064602;28;46611;-83
2021/06/03 06:57:08;;;;;;;;;23.50;22.00;;;;;22.58;62.15;101773.75;5075651;28;45454;-83
2021/06/03 06:59:34;;;;;;;;;20.50;19.25;;;;;22.64;62.31;101772.50;5070448;27;45523;-83
2021/06/03 07:01:59;;;;;;;;;27.25;23.00;;;;;22.69;62.37;101775.72;5072113;28;46238;-83
2021/06/03 07:04:24;;;;;;;;;23.00;22.00;;;;;22.71;62.27;101772.97;5080978;28;45309;-82
2021/06/03 07:06:50;;;;;;;;;23.50;21.50;;;;;22.74;61.66;101772.75;5075770;28;45467;-82
2021/06/03 07:09:15;;;;;;;;;20.50;20.50;;;;;22.77;61.94;101775.19;5065139;28;45483;-82
2021/06/03 07:11:41;;;;;;;;;19.00;17.00;;;;;22.79;61.21;101783.16;5074032;28;46122;-82
2021/06/03 07:14:06;;;;;;;;;21.25;20.50;;;;;22.80;60.60;101776.81;5064255;28;45312;-82
2021/06/03 07:16:32;;;;;;;;;28.50;20.50;;;;;22.81;61.15;101783.91;5068156;28;45275;-82
2021/06/03 07:18:57;;;;;;;;;23.00;22.50;;;;;22.80;60.61;101777.66;5071460;27;45270;-82
2021/06/03 07:21:22;;;;;;;;;18.25;17.00;;;;;22.81;60.66;101778.53;5065558;28;45825;-82
2021/06/03 07:23:48;;;;;;;;;18.00;15.00;;;;;22.84;59.94;101780.97;5066318;28;45255;-82
2021/06/03 07:26:14;;;;;;;;;16.00;14.75;;;;;22.89;59.88;101778.00;5073333;28;45235;-82
2021/06/03 07:28:39;;;;;;;;;19.00;17.50;;;;;22.91;59.88;101787.66;5064131;28;45350;-83
2021/06/03 07:31:05;;;;;;;;;17.50;16.00;;;;;22.95;59.69;101787.44;5060801;28;45211;-82
2021/06/03 07:33:30;;;;;;;;;21.75;19.75;;;;;22.99;58.44;101781.75;5060097;28;45440;-82
2021/06/03 07:35:56;;;;;;;;;18.25;17.00;;;;;23.01;58.47;101789.69;5068386;28;45223;-82
2021/06/03 07:38:23;;;;;;;;;18.25;16.50;;;;;23.04;58.29;101790.31;5080463;28;45466;-82
2021/06/03 07:40:48;;;;;;;;;21.00;19.25;;;;;23.12;58.21;101788.94;5075254;28;46153;-82
2021/06/03 07:43:14;;;;;;;;;16.50;14.75;;;;;23.18;59.46;101793.00;5063207;28;45404;-82
2021/06/03 07:45:41;;;;;;;;;19.25;17.25;;;;;23.29;59.28;101794.91;5068761;27;45426;-82
2021/06/03 07:48:07;;;;;;;;;20.00;17.75;;;;;23.37;59.43;101800.59;5066454;28;45455;-83
2021/06/03 07:50:34;;;;;;;;;19.00;17.50;;;;;23.46;59.24;101796.38;5075399;28;45409;-83
2021/06/03 07:53:01;;;;;;;;;20.25;17.75;;;;;23.54;58.13;101802.09;5060151;28;45164;-83
2021/06/03 07:55:27;;;;;;;;;17.00;16.75;;;;;23.59;57.66;101794.59;5066599;27;45516;-83
2021/06/03 07:57:57;;;;;;;;;18.25;17.50;;;;;23.65;58.61;101801.34;5065747;28;45468;-82
2021/06/03 08:00:23;;;;;;;;;19.75;17.50;;;;;23.72;57.76;101796.38;5073404;28;47323;-83
2021/06/03 08:02:49;;;;;;;;;19.25;17.25;;;;;23.77;57.21;101798.72;5060002;28;45651;-82
2021/06/03 08:05:17;;;;;;;;;20.00;19.00;;;;;23.80;56.53;101803.88;5060418;28;45480;-82
2021/06/03 08:07:43;;;;;;;;;16.75;16.25;;;;;23.83;56.66;101804.50;5066587;27;45210;-83
2021/06/03 08:10:12;;;;;;;;;18.75;16.00;;;;;23.87;57.46;101806.97;5074283;28;46120;-84
2021/06/03 08:12:38;;;;;;;;;20.75;16.25;;;;;23.92;56.96;101808.34;5080110;28;45651;-84
2021/06/03 08:15:06;;;;;;;;;18.00;18.00;;;;;24.00;56.40;101817.66;5063129;28;45448;-84
2021/06/03 08:17:31;;;;;;;;;20.00;17.75;;;;;24.03;56.22;101818.28;5068447;27;45408;-84
2021/06/03 08:19:57;;;;;;;;;13.75;13.50;;;;;24.07;56.05;101818.06;5063998;28;45337;-84
2021/06/03 08:22:22;;;;;;;;;16.75;13.75;;;;;24.08;55.57;101811.69;5061750;28;45239;-84
2021/06/03 08:26:13;;;;;;;;;11.25;10.25;;;;;24.19;56.27;101795.66;5023656;27;45299;-77
2021/06/03 08:28:38;;;;;;;;;11.00;8.50;;;;;24.23;55.84;101791.75;4973828;28;45240;-77
2021/06/03 08:31:04;;;;;;;;;8.25;8.00;;;;;24.30;56.03;101794.88;4979405;28;45232;-77
2021/06/03 08:33:29;;;;;;;;;8.75;8.50;;;;;24.37;55.77;101798.78;4973247;28;45447;-76
2021/06/03 08:35:56;;;;;;;;;11.25;11.25;;;;;24.45;55.86;101803.59;4973537;28;45297;-78
2021/06/03 08:38:22;;;;;;;;;10.00;10.00;;;;;24.53;55.45;101796.78;4981363;28;45645;-78
2021/06/03 08:40:53;;;;;;;;;9.25;9.25;;;;;24.59;55.48;101797.19;5018991;28;45274;-77
2021/06/03 08:43:22;;;;;;;;;8.25;8.25;;;;;24.67;55.09;101799.25;4971611;28;46944;-76
2021/06/03 08:45:49;;;;;;;;;9.00;8.25;;;;;24.72;55.25;101797.06;4971346;28;46082;-78
2021/06/03 08:48:15;;;;;;;;;10.50;10.50;;;;;24.77;54.91;101793.19;4971011;28;45388;-79
2021/06/03 08:50:45;;;;;;;;;10.00;10.00;;;;;24.83;54.73;101796.25;4972799;28;45346;-77
2021/06/03 13:00:18;;;;;;;;;11.50;10.50;;;;;22.95;57.14;101715.06;5116937;27;45902;-76
2021/06/03 13:02:48;;;;;;;;;9.50;9.50;;;;;23.10;56.98;101722.00;5119212;27;45601;-80
2021/06/03 13:05:16;;;;;;;;;9.50;9.00;;;;;23.28;57.51;101716.31;5118028;27;45315;-80
2021/06/03 13:07:44;;;;;;;;;13.50;12.00;;;;;23.44;56.55;101710.66;5118005;27;45218;-78
2021/06/03 13:10:16;;;;;;;;;10.75;10.75;;;;;23.63;56.78;101711.19;5128978;27;45432;-82
2021/06/03 13:12:57;;;;;;;;;11.75;10.25;;;;;23.81;56.22;101712.50;5123133;27;45565;-82
2021/06/03 13:15:24;;;;;;;;;11.50;9.75;;;;;23.98;55.67;101712.22;5128528;27;45314;-82
2021/06/03 13:17:57;;;;;;;;;13.25;13.25;;;;;24.14;55.98;101706.53;5138068;27;45455;-80
2021/06/03 13:20:29;;;;;;;;;10.50;10.25;;;;;24.29;56.04;101707.22;5124458;27;45459;-79
2021/06/03 13:23:06;;;;;;;;;10.00;10.00;;;;;24.42;55.55;101700.91;5120411;27;45473;-79
2021/06/03 13:25:37;;;;;;;;;11.25;10.25;;;;;24.56;55.58;101707.88;5106536;27;45336;-79
2021/06/03 13:28:03;;;;;;;;;11.00;10.50;;;;;24.65;54.89;101693.72;5125039;27;45346;-78
2021/06/03 13:30:31;;;;;;;;;11.00;9.25;;;;;24.76;54.89;101698.25;5118912;27;45439;-78
2021/06/03 13:33:12;;;;;;;;;13.00;11.50;;;;;24.86;54.63;101693.00;5117844;27;45361;-78
2021/06/03 13:35:43;;;;;;;;;11.50;10.25;;;;;24.94;54.44;101690.53;5117965;27;45279;-79
2021/06/03 13:38:09;;;;;;;;;9.75;9.75;;;;;25.03;54.13;101693.50;5116367;27;46967;-79
2021/06/03 13:40:35;;;;;;;;;13.50;11.00;;;;;25.10;53.70;101696.56;5127636;27;45941;-78
2021/06/03 13:43:06;;;;;;;;;11.00;11.00;;;;;25.17;53.77;101695.06;5108812;27;45268;-78
2021/06/03 13:45:38;;;;;;;;;9.50;9.50;;;;;25.23;53.51;101685.66;5122292;27;45521;-80
2021/06/03 13:48:05;;;;;;;;;10.25;9.75;;;;;25.28;53.75;101688.84;5127466;27;45332;-79
2021/06/03 13:50:39;;;;;;;;;9.50;9.00;;;;;25.33;53.21;101681.25;5126220;27;45383;-79
2021/06/03 13:53:23;;;;;;;;;9.00;9.00;;;;;25.37;53.53;101688.09;5114798;27;46258;-79
2021/06/03 13:55:59;;;;;;;;;7.25;7.25;;;;;25.41;52.88;101683.28;5125228;27;45303;-79
2021/06/03 13:58:44;;;;;;;;;11.25;11.25;;;;;25.45;52.70;101665.06;5130587;27;45441;-77
2021/06/03 14:01:34;;;;;;;;;9.00;9.00;;;;;25.47;52.85;101671.16;5118016;27;45313;-79
2021/06/03 14:04:09;;;;;;;;;6.50;6.50;;;;;25.51;52.68;101669.94;5099460;27;45568;-80
2021/06/03 14:06:34;;;;;;;;;11.00;9.25;;;;;25.53;52.34;101681.44;5117702;27;45309;-80
2021/06/03 14:09:01;;;;;;;;;9.00;8.00;;;;;25.54;52.06;101683.13;5117134;27;45473;-79
2021/06/03 14:15:39;;;;;;;;;14.50;13.25;;;;;25.40;50.18;101693.22;5135635;27;45581;-86
2021/06/03 14:18:05;;;;;;;;;14.50;14.00;;;;;25.27;49.88;101692.50;5095880;27;45996;-86
2021/06/03 14:20:30;;;;;;;;;14.25;12.25;;;;;25.11;49.69;101687.53;5096351;27;45451;-86
2021/06/03 14:22:56;;;;;;;;;15.75;14.00;;;;;24.99;49.67;101692.03;5088045;27;45240;-86
2021/06/03 14:25:23;;;;;;;;;10.75;10.75;;;;;24.87;50.43;101688.44;5090300;27;45910;-86
2021/06/03 14:27:54;;;;;;;;;12.50;12.50;;;;;24.80;49.91;101683.59;5097154;27;45527;-86
2021/06/03 14:30:27;;;;;;;;;13.50;13.25;;;;;24.69;49.76;101692.47;5096319;27;45272;-86
2021/06/03 14:32:58;;;;;;;;;15.25;12.75;;;;;24.57;49.04;101696.16;5107233;27;45193;-86
2021/06/03 14:35:33;;;;;;;;;13.00;12.00;;;;;24.66;50.23;101689.19;5092719;27;45461;-85
2021/06/03 14:48:53;;;;;;;;;10.50;10.00;;;;;25.33;53.68;101650.78;5113658;27;45711;-83
2021/06/03 14:51:19;;;;;;;;;9.50;9.50;;;;;25.52;52.74;101658.19;5076772;28;45204;-81
2021/06/03 14:53:44;;;;;;;;;8.75;8.75;;;;;25.63;52.06;101650.06;5076174;28;45412;-81
2021/06/03 14:56:10;;;;;;;;;8.75;8.75;;;;;25.76;51.76;101650.91;5073877;27;45545;-82
2021/06/03 14:58:37;;;;;;;;;10.00;9.00;;;;;25.88;51.59;101654.41;5076460;27;45164;-85
2021/06/03 15:01:05;;;;;;;;;8.00;8.00;;;;;25.97;51.19;101653.63;5075376;28;45454;-84
2021/06/03 15:03:32;;;;;;;;;10.00;10.00;;;;;26.05;51.03;101650.28;5076983;28;45230;-86
2021/06/03 15:05:58;;;;;;;;;9.50;9.25;;;;;26.12;50.58;101658.69;5076440;27;46087;-85
2021/06/03 15:08:26;;;;;;;;;8.50;8.50;;;;;26.19;50.57;101659.88;5076888;28;45613;-85
2021/06/03 15:10:54;;;;;;;;;11.25;10.25;;;;;26.25;50.35;101655.81;5076566;28;45376;-85
2021/06/03 15:13:31;;;;;;;;;9.25;9.25;;;;;26.28;49.83;101656.38;5077267;28;45480;-85
2021/06/03 15:16:03;;;;;;;;;9.50;9.50;;;;;26.34;50.18;101652.31;5067162;27;46214;-84
2021/06/03 15:18:29;;;;;;;;;9.25;9.25;;;;;26.39;49.58;101660.00;5091763;27;48479;-84
2021/06/03 15:20:56;;;;;;;;;9.25;9.25;;;;;26.43;50.00;101655.19;5070904;28;45543;-82
2021/06/03 15:23:25;;;;;;;;;8.50;8.50;;;;;26.45;49.44;101647.81;5088472;28;44617;-82
2021/06/03 15:25:51;;;;;;;;;9.00;8.00;;;;;26.49;49.22;101646.59;5095910;28;46115;-82
2021/06/03 15:28:17;;;;;;;;;8.50;7.50;;;;;26.53;48.98;101642.63;5101096;28;45653;-81
2021/06/03 15:30:43;;;;;;;;;7.75;7.75;;;;;26.56;49.46;101639.69;5101491;28;44703;-81
2021/06/03 15:33:10;;;;;;;;;9.25;9.25;;;;;26.58;49.32;101632.31;5071170;28;45437;-82
2021/06/03 15:35:39;;;;;;;;;7.75;7.75;;;;;26.59;49.26;101628.63;5062183;28;47247;-81
2021/06/03 15:38:07;;;;;;;;;10.00;9.25;;;;;26.62;49.49;101616.69;5048948;28;47804;-80
2021/06/03 15:40:33;;;;;;;;;10.25;10.25;;;;;26.65;49.15;101620.97;5073405;28;45283;-78
2021/06/03 15:42:59;;;;;;;;;9.00;7.00;;;;;26.66;48.90;101612.75;5077057;28;45306;-78